Time;durP1;ratioP1;P1;durP2;ratioP2;P2;SDS_P1;SDS_P2;PMS_P1;PMS_P2;Temp;Humidity;BMP_temperature;BMP_pressure;BME280_temperature;BME280_humidity;BME280_pressure;Samples;Min_cycle;Max_cycle;Signal;HPM_P1;HPM_P2
2021/06/02 04:02:40;;;;;;;2.50;1.90;;;11.80;99.90;;;;;;5012671;23;20601;-69
2021/06/02 04:05:19;;;;;;;1.83;1.83;;;11.80;99.90;;;;;;4937379;29;20220;-70
2021/06/02 04:07:57;;;;;;;2.50;2.35;;;11.80;99.90;;;;;;4936782;29;20753;-71
2021/06/02 04:10:35;;;;;;;2.10;2.03;;;11.80;99.90;;;;;;4937782;29;20216;-70
2021/06/02 04:13:04;;;;;;;3.85;2.88;;;11.80;99.90;;;;;;4937511;29;20190;-70
2021/06/02 04:15:31;;;;;;;2.60;2.50;;;11.80;99.90;;;;;;4937567;29;20209;-70
2021/06/02 04:18:00;;;;;;;2.10;2.10;;;11.80;99.90;;;;;;4938117;29;20214;-70
2021/06/02 04:20:27;;;;;;;3.58;2.30;;;11.90;99.90;;;;;;4936899;29;20234;-70
2021/06/02 04:22:55;;;;;;;1.90;1.80;;;11.90;99.90;;;;;;4936479;29;20206;-70
2021/06/02 04:25:21;;;;;;;1.85;1.75;;;12.00;99.90;;;;;;4937100;29;20218;-70
2021/06/02 04:27:48;;;;;;;2.00;1.90;;;12.00;99.90;;;;;;4938203;29;20237;-71
2021/06/02 04:30:17;;;;;;;2.10;2.10;;;12.00;99.90;;;;;;4936673;29;20236;-70
2021/06/02 04:32:45;;;;;;;2.10;2.10;;;12.10;99.90;;;;;;4936567;29;20234;-70
2021/06/02 04:35:16;;;;;;;2.00;1.90;;;12.10;99.90;;;;;;4936952;29;20217;-70
2021/06/02 04:37:43;;;;;;;2.28;2.10;;;12.20;99.90;;;;;;4936535;29;20677;-70
2021/06/02 04:40:11;;;;;;;4.03;2.35;;;12.20;99.90;;;;;;4937376;29;20309;-70
2021/06/02 04:42:39;;;;;;;2.40;2.30;;;12.40;99.90;;;;;;4937280;29;20214;-70
2021/06/02 04:45:08;;;;;;;1.63;1.60;;;12.50;99.90;;;;;;4937122;29;20571;-70
2021/06/02 04:47:35;;;;;;;3.33;2.00;;;12.60;99.90;;;;;;4936897;29;20229;-70
2021/06/02 04:50:21;;;;;;;2.13;2.03;;;12.70;99.90;;;;;;4936929;29;20210;-70
2021/06/02 04:53:26;;;;;;;3.95;2.13;;;12.90;99.90;;;;;;4936627;29;20213;-70
2021/06/02 04:56:31;;;;;;;2.30;2.10;;;13.40;99.90;;;;;;4936902;29;20214;-70
2021/06/02 04:59:31;;;;;;;2.17;1.93;;;14.30;99.90;;;;;;4937003;29;20217;-70
2021/06/02 05:02:11;;;;;;;3.03;2.10;;;15.40;99.90;;;;;;4914879;29;21085;-71
2021/06/02 05:05:23;;;;;;;1.73;1.63;;;16.20;99.90;;;;;;4936435;29;20466;-71
2021/06/02 05:08:29;;;;;;;1.87;1.80;;;16.70;99.90;;;;;;4935926;28;21035;-69
2021/06/02 05:11:32;;;;;;;2.60;2.40;;;17.50;99.90;;;;;;4936401;29;20504;-70
2021/06/02 05:14:31;;;;;;;2.60;2.37;;;18.00;99.90;;;;;;4938786;29;20473;-72
2021/06/02 05:17:23;;;;;;;1.80;1.80;;;18.30;99.90;;;;;;4938013;29;20553;-71
2021/06/02 05:20:40;;;;;;;2.33;2.13;;;18.00;99.90;;;;;;4936764;29;20465;-69
2021/06/02 05:23:49;;;;;;;2.80;2.67;;;17.20;99.90;;;;;;4936199;29;20465;-70
2021/06/02 05:26:31;;;;;;;2.20;2.10;;;16.50;99.90;;;;;;4936827;29;20497;-72
2021/06/02 05:29:16;;;;;;;2.10;2.07;;;17.00;99.90;;;;;;4936346;29;20475;-72
2021/06/02 05:32:18;;;;;;;2.90;2.70;;;17.60;99.90;;;;;;4936552;29;20485;-71
2021/06/02 05:35:15;;;;;;;2.70;2.50;;;17.90;99.90;;;;;;4936173;29;20457;-71
2021/06/02 05:38:10;;;;;;;2.43;2.33;;;18.40;99.90;;;;;;4936158;29;20462;-70
2021/06/02 05:40:48;;;;;;;2.10;2.10;;;18.80;99.90;;;;;;4936425;29;20477;-71
2021/06/02 05:43:35;;;;;;;1.77;1.77;;;19.30;99.90;;;;;;4936999;29;20500;-70
2021/06/02 05:46:42;;;;;;;2.50;2.40;;;19.70;99.90;;;;;;4936618;29;20488;-69
2021/06/02 05:49:46;;;;;;;2.33;2.33;;;19.70;99.90;;;;;;4935753;29;20465;-70
2021/06/02 05:52:28;;;;;;;2.47;2.37;;;19.70;99.90;;;;;;4935509;29;20886;-70
2021/06/02 05:55:36;;;;;;;2.37;2.17;;;19.40;99.90;;;;;;4936834;29;20473;-70
2021/06/02 05:58:37;;;;;;;4.13;2.70;;;19.70;99.90;;;;;;4937394;29;20462;-70
2021/06/02 06:01:27;;;;;;;1.93;1.90;;;19.90;99.90;;;;;;4935237;29;20521;-69
2021/06/02 06:04:32;;;;;;;2.77;2.57;;;19.80;99.90;;;;;;4935146;29;20462;-69
2021/06/02 06:07:07;;;;;;;2.17;1.97;;;19.80;99.90;;;;;;4935370;28;20552;-69
2021/06/02 06:10:02;;;;;;;2.37;2.33;;;19.60;99.90;;;;;;4935567;29;20501;-70
2021/06/02 06:12:59;;;;;;;4.67;2.93;;;18.80;99.90;;;;;;4936217;29;20669;-70
2021/06/02 06:16:05;;;;;;;2.97;2.90;;;19.00;99.90;;;;;;4937534;29;20498;-70
2021/06/02 06:18:52;;;;;;;3.30;3.20;;;18.80;99.90;;;;;;4938595;29;20464;-70
2021/06/02 06:22:01;;;;;;;2.73;2.53;;;18.80;99.90;;;;;;4942996;29;20485;-70
2021/06/02 06:24:32;;;;;;;3.00;2.80;;;19.50;99.90;;;;;;4949547;29;20461;-70
2021/06/02 06:27:03;;;;;;;2.93;2.70;;;20.20;99.90;;;;;;4946882;29;20493;-70
2021/06/02 06:29:37;;;;;;;2.50;2.40;;;20.40;99.90;;;;;;4949064;29;20553;-70
2021/06/02 06:32:06;;;;;;;2.77;2.67;;;20.60;99.90;;;;;;4948390;29;20484;-68
2021/06/02 06:34:34;;;;;;;2.10;2.10;;;21.00;99.90;;;;;;4953104;29;20509;-70
2021/06/02 06:37:02;;;;;;;2.53;2.50;;;21.60;99.90;;;;;;4954206;29;20458;-71
2021/06/02 06:39:41;;;;;;;3.50;2.73;;;21.70;99.90;;;;;;4954091;29;20537;-71
2021/06/02 06:42:11;;;;;;;2.40;2.30;;;21.70;99.90;;;;;;4946136;29;20489;-70
2021/06/02 06:44:39;;;;;;;2.07;1.97;;;22.10;99.90;;;;;;4940046;29;20512;-70
2021/06/02 06:47:08;;;;;;;2.50;2.40;;;21.90;98.80;;;;;;4934543;29;20494;-70
2021/06/02 06:49:36;;;;;;;2.50;2.40;;;21.70;99.00;;;;;;4934699;29;20470;-70
2021/06/02 06:52:03;;;;;;;2.50;2.40;;;21.70;99.10;;;;;;4934567;29;20489;-69
2021/06/02 06:54:30;;;;;;;1.70;1.70;;;21.60;99.40;;;;;;4938721;29;20808;-70
2021/06/02 06:56:56;;;;;;;2.63;2.60;;;21.90;98.60;;;;;;4938596;29;20528;-69
2021/06/02 06:59:23;;;;;;;2.57;2.47;;;22.10;97.80;;;;;;4938636;29;20511;-70
2021/06/02 07:01:49;;;;;;;2.17;2.07;;;22.10;97.10;;;;;;4939300;29;20575;-71
2021/06/02 07:04:17;;;;;;;2.00;2.00;;;22.20;97.70;;;;;;4939790;29;20473;-69
2021/06/02 07:06:44;;;;;;;2.17;2.07;;;22.50;96.60;;;;;;4940158;29;20873;-71
2021/06/02 07:09:11;;;;;;;2.50;2.40;;;22.70;96.30;;;;;;4939958;29;20472;-70
2021/06/02 07:11:40;;;;;;;2.30;2.20;;;22.80;96.10;;;;;;4939402;29;20485;-70
2021/06/02 07:14:09;;;;;;;2.03;1.93;;;22.80;95.80;;;;;;4938423;29;20552;-68
2021/06/02 07:16:36;;;;;;;2.27;2.27;;;22.70;94.90;;;;;;4938286;29;20461;-68
2021/06/02 07:19:05;;;;;;;2.43;2.33;;;22.70;94.40;;;;;;4937920;29;20473;-69
2021/06/02 07:21:35;;;;;;;2.70;2.60;;;22.70;94.10;;;;;;4937940;29;20485;-68
2021/06/02 07:24:01;;;;;;;2.57;2.47;;;22.40;94.20;;;;;;4937983;29;20827;-69
2021/06/02 07:26:27;;;;;;;2.03;2.00;;;22.10;95.20;;;;;;4937826;29;20485;-69
2021/06/02 07:28:54;;;;;;;3.50;2.10;;;21.70;95.40;;;;;;4938322;29;20484;-69
2021/06/02 07:31:20;;;;;;;2.70;2.50;;;21.20;96.30;;;;;;4938475;29;20561;-69
2021/06/02 07:33:47;;;;;;;2.07;2.00;;;21.00;97.00;;;;;;4937597;29;20496;-71
2021/06/02 07:36:13;;;;;;;2.97;2.33;;;20.70;96.70;;;;;;4937219;29;20564;-70
2021/06/02 07:38:41;;;;;;;2.20;2.10;;;20.10;97.20;;;;;;4938067;29;20469;-70
2021/06/02 07:41:08;;;;;;;2.00;1.90;;;19.50;98.80;;;;;;4937809;29;20495;-70
2021/06/02 07:43:34;;;;;;;4.27;2.20;;;19.20;99.90;;;;;;4938256;29;20497;-69
2021/06/02 07:46:01;;;;;;;2.40;2.30;;;19.00;99.90;;;;;;4937710;29;20521;-69
2021/06/02 07:48:27;;;;;;;2.73;2.70;;;18.90;99.90;;;;;;4937984;29;20516;-70
2021/06/02 07:50:53;;;;;;;1.73;1.63;;;18.80;99.90;;;;;;4936944;29;20485;-70
2021/06/02 07:53:20;;;;;;;2.00;2.00;;;19.20;99.90;;;;;;4937270;29;20548;-70
2021/06/02 07:55:47;;;;;;;2.50;2.10;;;19.40;99.90;;;;;;4937091;29;20791;-69
2021/06/02 07:58:13;;;;;;;1.77;1.77;;;19.30;99.90;;;;;;4937799;29;20461;-69
2021/06/02 08:00:40;;;;;;;2.13;2.13;;;19.30;99.90;;;;;;4937469;29;20489;-69
2021/06/02 08:03:06;;;;;;;2.20;2.10;;;19.00;99.90;;;;;;4937339;29;20517;-69
2021/06/02 08:05:32;;;;;;;1.77;1.77;;;18.70;99.90;;;;;;4936456;29;20472;-70
2021/06/02 08:07:58;;;;;;;2.30;2.20;;;18.60;99.90;;;;;;4936606;28;20493;-70
2021/06/02 08:10:25;;;;;;;2.00;1.90;;;18.60;99.90;;;;;;4937187;29;20532;-71
2021/06/02 08:12:53;;;;;;;2.23;2.13;;;18.60;99.90;;;;;;4937444;29;20492;-71
2021/06/02 08:15:19;;;;;;;1.80;1.80;;;18.60;99.90;;;;;;4938114;29;20852;-70
2021/06/02 08:17:46;;;;;;;2.23;2.13;;;18.90;99.90;;;;;;4937509;29;20465;-70
2021/06/02 08:20:15;;;;;;;1.77;1.67;;;19.10;99.90;;;;;;4942848;29;20465;-71
2021/06/02 08:22:42;;;;;;;1.97;1.87;;;19.30;99.90;;;;;;4943958;29;20578;-70
2021/06/02 08:25:10;;;;;;;1.53;1.53;;;19.20;99.90;;;;;;4937865;29;20465;-70
2021/06/02 08:27:37;;;;;;;1.83;1.83;;;19.00;99.70;;;;;;4937572;29;21067;-70
2021/06/02 08:30:07;;;;;;;1.73;1.73;;;19.00;99.90;;;;;;4937131;29;20466;-70
2021/06/02 08:32:33;;;;;;;2.43;1.47;;;19.50;99.90;;;;;;4936797;29;20492;-70
2021/06/02 08:34:59;;;;;;;4.53;2.43;;;19.80;98.90;;;;;;4936574;29;20950;-70
2021/06/02 08:37:25;;;;;;;2.43;2.33;;;19.60;99.40;;;;;;4936326;29;20484;-70
2021/06/02 08:39:52;;;;;;;3.10;2.13;;;19.30;99.80;;;;;;4937303;29;20950;-71
2021/06/02 08:42:18;;;;;;;1.60;1.60;;;19.50;99.90;;;;;;4937109;29;20552;-71
2021/06/02 08:44:45;;;;;;;2.00;1.90;;;19.70;99.40;;;;;;4936978;29;20465;-71
2021/06/02 08:47:12;;;;;;;1.87;1.87;;;19.70;98.80;;;;;;4936876;29;21017;-71
2021/06/02 08:49:39;;;;;;;2.20;2.10;;;19.70;99.10;;;;;;4936325;29;20473;-71
2021/06/02 08:52:07;;;;;;;2.00;2.00;;;19.70;99.20;;;;;;4935972;29;20521;-70
2021/06/02 08:54:33;;;;;;;1.83;1.83;;;19.70;99.20;;;;;;4936787;29;20814;-70
2021/06/02 08:57:03;;;;;;;2.43;2.33;;;19.60;98.90;;;;;;4936884;29;20470;-71
2021/06/02 08:59:29;;;;;;;6.80;2.77;;;19.50;99.20;;;;;;4936701;29;20474;-70
2021/06/02 09:01:57;;;;;;;2.50;2.50;;;19.60;99.90;;;;;;4936465;29;20498;-70
2021/06/02 09:04:25;;;;;;;2.20;2.20;;;19.60;99.80;;;;;;4935770;29;20552;-70
2021/06/02 09:06:52;;;;;;;2.50;2.40;;;19.60;99.90;;;;;;4936268;28;20504;-70
2021/06/02 09:09:18;;;;;;;2.27;2.17;;;19.50;99.90;;;;;;4936673;29;20562;-69
2021/06/02 09:11:46;;;;;;;2.60;2.50;;;19.70;99.90;;;;;;4936793;29;20482;-69
2021/06/02 09:14:24;;;;;;;1.70;1.60;;;19.80;99.90;;;;;;4936294;29;20477;-69
2021/06/02 09:16:52;;;;;;;2.00;2.00;;;20.10;99.90;;;;;;4936634;29;20523;-70
2021/06/02 09:19:40;;;;;;;2.30;2.20;;;20.40;99.90;;;;;;4936148;29;20485;-70
2021/06/02 09:22:09;;;;;;;3.37;2.07;;;20.60;99.60;;;;;;4936104;29;21084;-72
2021/06/02 09:24:56;;;;;;;2.73;2.50;;;20.90;99.20;;;;;;4936681;29;20466;-70
2021/06/02 09:27:43;;;;;;;2.10;1.90;;;20.90;98.20;;;;;;4936323;29;20980;-71
2021/06/02 09:30:13;;;;;;;2.27;2.17;;;21.00;98.20;;;;;;4936397;29;20469;-70
2021/06/02 09:32:47;;;;;;;2.17;2.07;;;21.10;97.70;;;;;;4936092;29;20465;-71
2021/06/02 09:35:17;;;;;;;2.27;2.17;;;21.00;98.40;;;;;;4935911;29;20500;-70
2021/06/02 09:37:50;;;;;;;2.27;2.27;;;21.00;98.40;;;;;;4935485;29;20558;-70
2021/06/02 09:40:21;;;;;;;2.63;2.50;;;20.70;98.10;;;;;;4936101;29;20771;-70
2021/06/02 09:42:47;;;;;;;2.27;2.27;;;20.50;98.70;;;;;;4935364;29;20480;-70
2021/06/02 09:45:15;;;;;;;4.50;2.73;;;20.20;99.20;;;;;;4935525;29;20937;-69
2021/06/02 09:47:42;;;;;;;2.33;2.23;;;20.00;99.60;;;;;;4935644;29;20486;-68
2021/06/02 09:50:10;;;;;;;2.57;2.47;;;19.90;99.80;;;;;;4935282;29;20574;-69
2021/06/02 09:52:44;;;;;;;2.13;2.03;;;19.90;99.50;;;;;;4934701;29;20472;-69
2021/06/02 09:55:12;;;;;;;2.10;2.00;;;20.10;99.50;;;;;;4935624;29;20476;-69
2021/06/02 09:57:38;;;;;;;2.40;2.40;;;20.40;98.70;;;;;;4935682;29;20458;-69
2021/06/02 10:00:05;;;;;;;1.90;1.90;;;20.60;98.90;;;;;;4935272;29;20469;-69
2021/06/02 10:02:32;;;;;;;1.60;1.60;;;20.90;98.10;;;;;;4935123;29;20492;-69
2021/06/02 10:05:00;;;;;;;2.00;2.00;;;20.80;97.70;;;;;;4934827;29;20810;-69
2021/06/02 10:07:27;;;;;;;2.07;1.97;;;20.70;98.30;;;;;;4934515;28;20493;-69
2021/06/02 10:10:07;;;;;;;3.10;3.00;;;20.80;99.00;;;;;;4935227;29;20536;-68
2021/06/02 10:12:33;;;;;;;2.10;1.97;;;20.80;99.00;;;;;;4935044;29;21031;-69
2021/06/02 10:15:00;;;;;;;2.90;2.67;;;20.90;99.20;;;;;;4935113;29;20474;-69
2021/06/02 10:17:27;;;;;;;3.90;3.70;;;21.00;99.40;;;;;;4934999;29;20520;-69
2021/06/02 10:19:54;;;;;;;2.73;2.63;;;21.20;99.30;;;;;;4934782;29;20803;-69
2021/06/02 10:22:26;;;;;;;2.50;2.50;;;21.20;99.00;;;;;;4934349;29;20485;-69
2021/06/02 10:24:55;;;;;;;4.27;2.77;;;21.20;99.30;;;;;;4934756;29;20972;-70
2021/06/02 10:27:22;;;;;;;2.63;2.53;;;21.20;99.00;;;;;;4934310;29;20493;-70
2021/06/02 10:29:49;;;;;;;2.60;2.47;;;21.40;99.20;;;;;;4935366;29;20492;-70
2021/06/02 10:32:17;;;;;;;3.33;2.93;;;21.50;98.80;;;;;;4935172;29;20493;-70
2021/06/02 10:34:44;;;;;;;3.80;3.43;;;21.70;98.70;;;;;;4934808;29;20472;-71
2021/06/02 10:37:13;;;;;;;2.80;2.70;;;21.90;98.70;;;;;;4935169;29;20470;-71
2021/06/02 10:39:42;;;;;;;2.50;2.47;;;22.00;98.20;;;;;;4935677;29;20477;-71
2021/06/02 10:42:18;;;;;;;2.83;2.73;;;22.10;98.10;;;;;;4935028;29;20917;-70
2021/06/02 10:44:50;;;;;;;2.40;2.40;;;22.20;98.00;;;;;;4935128;29;20476;-70
2021/06/02 10:47:22;;;;;;;3.17;3.00;;;22.20;98.40;;;;;;4934886;29;20597;-70
2021/06/02 10:49:48;;;;;;;3.43;3.20;;;22.30;98.70;;;;;;4934684;29;20473;-69
2021/06/02 10:52:35;;;;;;;3.43;2.90;;;22.30;98.30;;;;;;4934682;29;20501;-70
2021/06/02 10:55:35;;;;;;;4.03;3.73;;;22.20;98.30;;;;;;4934816;29;20608;-69
2021/06/02 10:58:18;;;;;;;2.80;2.70;;;22.10;98.00;;;;;;4934947;29;20548;-69
2021/06/02 11:00:46;;;;;;;2.47;2.40;;;21.90;98.50;;;;;;4934910;29;20497;-70
2021/06/02 11:03:24;;;;;;;3.20;3.10;;;21.80;99.30;;;;;;4934940;29;20476;-70
2021/06/02 11:05:59;;;;;;;3.13;2.93;;;21.80;99.50;;;;;;4933978;28;20945;-70
2021/06/02 11:09:02;;;;;;;3.60;3.30;;;21.80;99.40;;;;;;4935233;29;20611;-69
2021/06/02 11:11:30;;;;;;;3.43;3.23;;;21.80;99.50;;;;;;4934949;29;20484;-70
2021/06/02 11:14:20;;;;;;;2.70;2.60;;;21.80;99.80;;;;;;4934596;29;20465;-70
2021/06/02 11:16:48;;;;;;;3.30;3.20;;;21.80;99.90;;;;;;4934983;29;20472;-69
2021/06/02 11:19:15;;;;;;;3.20;3.07;;;22.00;99.90;;;;;;4934699;29;20480;-69
2021/06/02 11:21:56;;;;;;;3.10;3.00;;;22.10;99.90;;;;;;4934097;29;20504;-69
2021/06/02 11:24:42;;;;;;;3.53;3.43;;;22.10;99.90;;;;;;4935106;29;20468;-69
2021/06/02 11:27:41;;;;;;;3.23;2.97;;;22.30;99.90;;;;;;4934547;29;20589;-70
2021/06/02 11:30:11;;;;;;;3.30;3.20;;;22.40;99.90;;;;;;4934506;29;20620;-70
2021/06/02 11:32:56;;;;;;;3.50;3.40;;;22.50;99.60;;;;;;4934238;29;20469;-69
2021/06/02 11:35:55;;;;;;;3.73;3.53;;;22.60;99.70;;;;;;4934424;29;20492;-69
2021/06/02 11:38:22;;;;;;;3.33;3.23;;;22.70;99.90;;;;;;4935534;29;20461;-70
2021/06/02 11:40:48;;;;;;;3.73;3.50;;;22.90;99.30;;;;;;4937591;29;20577;-70
2021/06/02 11:43:19;;;;;;;2.97;2.87;;;22.70;98.90;;;;;;4937865;29;20484;-70
2021/06/02 11:45:46;;;;;;;3.10;3.00;;;22.60;99.50;;;;;;4937320;29;20954;-70
2021/06/02 11:48:18;;;;;;;3.63;3.43;;;22.60;99.60;;;;;;4937678;29;20496;-70
2021/06/02 11:50:45;;;;;;;3.60;3.50;;;22.50;99.40;;;;;;4936679;29;20493;-70
2021/06/02 11:53:11;;;;;;;2.93;2.83;;;22.60;99.80;;;;;;4937079;29;20477;-71
2021/06/02 11:55:38;;;;;;;3.43;3.30;;;22.70;98.90;;;;;;4937742;29;20473;-71
2021/06/02 11:58:04;;;;;;;4.03;3.50;;;22.90;99.70;;;;;;4937445;29;20461;-71
2021/06/02 12:00:33;;;;;;;3.47;3.37;;;22.90;99.10;;;;;;4937122;29;20485;-71
2021/06/02 12:03:01;;;;;;;3.53;3.23;;;22.90;99.20;;;;;;4937695;29;20505;-71
2021/06/02 12:05:29;;;;;;;3.50;3.20;;;22.90;99.20;;;;;;4936751;29;20477;-70
2021/06/02 12:07:58;;;;;;;3.80;3.57;;;22.80;99.50;;;;;;4936532;28;20823;-70
2021/06/02 12:10:25;;;;;;;3.30;3.13;;;22.90;99.30;;;;;;4937275;29;20927;-70
2021/06/02 12:12:53;;;;;;;3.50;3.40;;;23.10;99.00;;;;;;4936902;29;20469;-70
2021/06/02 12:15:19;;;;;;;2.90;2.90;;;23.20;98.90;;;;;;4936874;29;20470;-70
2021/06/02 12:17:49;;;;;;;2.87;2.87;;;23.30;99.00;;;;;;4937142;29;20501;-70
2021/06/02 12:20:17;;;;;;;3.00;2.90;;;23.20;98.40;;;;;;4936700;29;20913;-70
2021/06/02 12:22:44;;;;;;;3.13;3.03;;;23.20;98.80;;;;;;4936576;29;20469;-71
2021/06/02 12:25:16;;;;;;;3.03;2.93;;;23.20;98.10;;;;;;4937457;29;20581;-70
2021/06/02 12:27:44;;;;;;;3.07;2.97;;;23.10;98.70;;;;;;4937564;29;20885;-70
2021/06/02 12:30:12;;;;;;;3.77;3.57;;;23.00;98.30;;;;;;4937605;29;20539;-70
2021/06/02 12:32:52;;;;;;;2.90;2.80;;;23.10;98.50;;;;;;4938145;29;20487;-70
2021/06/02 12:35:26;;;;;;;2.27;2.17;;;23.10;98.60;;;;;;4938242;29;20476;-71
2021/06/02 12:38:06;;;;;;;3.10;3.00;;;23.10;98.00;;;;;;4939046;29;20470;-71
2021/06/02 12:40:33;;;;;;;3.13;3.03;;;23.10;98.50;;;;;;4946563;29;20499;-70
2021/06/02 12:42:59;;;;;;;2.47;2.47;;;23.10;98.70;;;;;;4950756;29;20477;-69
2021/06/02 12:45:27;;;;;;;2.80;2.70;;;23.20;98.90;;;;;;4946244;29;20469;-70
2021/06/02 12:47:55;;;;;;;3.33;3.23;;;23.10;98.60;;;;;;4943209;29;20998;-70
2021/06/02 12:50:41;;;;;;;3.80;3.70;;;23.00;98.80;;;;;;4945435;29;20470;-71
2021/06/02 12:53:08;;;;;;;3.00;2.90;;;23.10;99.20;;;;;;4942645;29;20469;-71
2021/06/02 12:55:35;;;;;;;3.70;3.50;;;23.30;98.70;;;;;;4940673;29;20470;-69
2021/06/02 12:58:04;;;;;;;2.80;2.80;;;23.20;98.30;;;;;;4936503;29;20466;-70
2021/06/02 13:00:30;;;;;;;3.40;3.30;;;23.20;98.70;;;;;;4936403;29;20485;-70
2021/06/02 13:02:59;;;;;;;3.77;3.63;;;23.30;99.30;;;;;;4936335;29;20493;-70
2021/06/02 13:05:26;;;;;;;3.53;3.40;;;23.40;99.30;;;;;;4936845;29;20536;-70
2021/06/02 13:08:02;;;;;;;3.40;3.30;;;23.60;98.90;;;;;;4936628;29;20532;-70
2021/06/02 13:10:30;;;;;;;3.43;3.33;;;23.50;98.90;;;;;;4935884;29;20544;-69
2021/06/02 13:12:59;;;;;;;3.23;3.13;;;23.70;99.80;;;;;;4935922;29;20465;-70
2021/06/02 13:15:27;;;;;;;3.40;3.30;;;23.80;98.60;;;;;;4936364;29;20473;-69
2021/06/02 13:17:54;;;;;;;3.47;3.37;;;23.90;98.50;;;;;;4935964;29;20478;-69
2021/06/02 13:20:41;;;;;;;3.70;3.20;;;24.10;98.90;;;;;;4935746;29;20786;-70
2021/06/02 13:23:18;;;;;;;4.17;3.20;;;24.10;98.30;;;;;;4935122;29;20472;-70
2021/06/02 13:25:47;;;;;;;3.47;3.17;;;24.20;97.50;;;;;;4936162;29;20842;-70
2021/06/02 13:28:13;;;;;;;3.60;3.50;;;24.10;96.10;;;;;;4936053;29;20516;-70
2021/06/02 13:30:44;;;;;;;3.47;3.37;;;24.10;96.50;;;;;;4935449;29;20857;-70
2021/06/02 13:33:12;;;;;;;3.70;3.40;;;24.20;97.10;;;;;;4935476;29;20839;-69
2021/06/02 13:35:41;;;;;;;3.70;3.37;;;24.30;95.20;;;;;;4935535;29;20476;-70
2021/06/02 13:38:07;;;;;;;4.00;3.70;;;24.30;95.10;;;;;;4935567;29;20473;-70
2021/06/02 13:40:36;;;;;;;3.70;3.47;;;24.50;96.00;;;;;;4936096;29;20576;-70
2021/06/02 13:43:14;;;;;;;2.73;2.73;;;24.50;94.40;;;;;;4936004;29;20470;-70
2021/06/02 13:45:50;;;;;;;2.77;2.67;;;24.30;93.70;;;;;;4936123;29;20469;-70
2021/06/02 13:48:37;;;;;;;3.57;3.27;;;24.30;94.00;;;;;;4935688;29;20499;-69
2021/06/02 13:51:28;;;;;;;3.53;3.33;;;24.30;94.30;;;;;;4934394;29;20544;-69
2021/06/02 13:54:08;;;;;;;3.23;3.03;;;24.30;94.50;;;;;;4934991;29;20949;-70
2021/06/02 13:56:46;;;;;;;3.40;3.30;;;24.40;94.30;;;;;;4935116;29;21020;-70
2021/06/02 13:59:13;;;;;;;3.37;3.27;;;24.50;94.30;;;;;;4935897;29;20993;-69
2021/06/02 14:01:42;;;;;;;3.30;3.20;;;24.40;94.20;;;;;;4934626;29;20552;-69
2021/06/02 14:04:09;;;;;;;3.50;3.40;;;24.50;94.10;;;;;;4934589;29;20469;-69
2021/06/02 14:06:37;;;;;;;3.20;3.10;;;24.60;94.30;;;;;;4934997;28;20481;-70
2021/06/02 14:09:05;;;;;;;3.80;3.43;;;24.50;94.20;;;;;;4935206;29;20489;-69
2021/06/02 14:11:31;;;;;;;3.60;3.50;;;24.50;95.30;;;;;;4934882;29;20490;-69
2021/06/02 14:13:57;;;;;;;3.50;3.40;;;24.30;94.40;;;;;;4934841;29;20958;-69
2021/06/02 14:16:24;;;;;;;3.90;3.70;;;24.40;95.40;;;;;;4935250;29;20875;-69
2021/06/02 14:18:51;;;;;;;4.00;3.70;;;24.50;95.40;;;;;;4934933;29;20469;-69
2021/06/02 14:21:18;;;;;;;3.73;3.60;;;24.60;95.70;;;;;;4934689;29;20496;-70
2021/06/02 14:23:47;;;;;;;4.10;3.90;;;24.70;95.60;;;;;;4934969;29;20532;-70
2021/06/02 14:26:13;;;;;;;3.53;3.43;;;24.80;95.70;;;;;;4934386;29;20483;-69
2021/06/02 14:28:40;;;;;;;3.90;3.67;;;24.70;95.20;;;;;;4934581;29;20489;-70
2021/06/02 14:31:06;;;;;;;4.13;3.90;;;24.50;96.00;;;;;;4934212;29;20592;-70
2021/06/02 14:33:32;;;;;;;4.07;3.97;;;24.50;96.30;;;;;;4934356;29;20481;-70
2021/06/02 14:35:59;;;;;;;4.67;4.43;;;24.30;95.90;;;;;;4933430;29;20954;-70
2021/06/02 14:38:25;;;;;;;4.40;4.23;;;24.30;96.30;;;;;;4935152;29;20465;-70
2021/06/02 14:40:53;;;;;;;3.80;3.57;;;24.40;96.30;;;;;;4934434;29;20489;-70
2021/06/02 14:43:19;;;;;;;3.63;3.53;;;24.40;96.10;;;;;;4934363;29;20476;-70
2021/06/02 14:45:46;;;;;;;4.10;3.80;;;24.40;96.20;;;;;;4934243;29;20465;-70
2021/06/02 14:48:12;;;;;;;3.63;3.53;;;24.40;96.40;;;;;;4934857;29;20486;-71
2021/06/02 14:50:40;;;;;;;4.57;4.37;;;24.40;96.30;;;;;;4934455;29;20811;-71
2021/06/02 14:53:07;;;;;;;3.57;3.47;;;24.50;96.70;;;;;;4934585;29;21001;-71
2021/06/02 14:55:33;;;;;;;3.90;3.70;;;24.70;96.10;;;;;;4935732;29;20501;-71
2021/06/02 14:58:01;;;;;;;3.60;3.50;;;24.80;95.80;;;;;;4934752;29;20478;-69
2021/06/02 15:00:30;;;;;;;4.23;4.00;;;24.90;96.10;;;;;;4934760;29;20513;-70
2021/06/02 15:02:56;;;;;;;4.10;4.00;;;24.90;96.10;;;;;;4934301;29;20492;-70
2021/06/02 15:05:23;;;;;;;3.80;3.60;;;24.70;96.00;;;;;;4934331;29;20934;-69
2021/06/02 15:07:49;;;;;;;4.73;4.23;;;24.60;96.10;;;;;;4934252;28;20508;-70
2021/06/02 15:10:15;;;;;;;5.10;4.30;;;24.70;96.30;;;;;;4935058;29;20512;-70
2021/06/02 15:12:43;;;;;;;3.90;3.80;;;25.00;96.10;;;;;;4934511;29;20823;-69
2021/06/02 15:15:12;;;;;;;3.70;3.50;;;24.90;95.40;;;;;;4938169;29;20787;-69
2021/06/02 15:17:39;;;;;;;4.17;3.97;;;24.90;95.50;;;;;;4938326;29;20465;-69
2021/06/02 15:20:06;;;;;;;4.63;4.00;;;24.70;95.50;;;;;;4937637;29;20949;-69
2021/06/02 15:22:33;;;;;;;4.93;4.63;;;24.60;96.20;;;;;;4937545;29;20556;-70
2021/06/02 15:24:59;;;;;;;3.97;3.77;;;24.60;96.00;;;;;;4937831;29;20461;-70
2021/06/02 15:27:26;;;;;;;4.20;3.90;;;24.50;95.70;;;;;;4937719;29;20489;-70
2021/06/02 15:29:55;;;;;;;4.47;4.30;;;24.40;96.00;;;;;;4937425;29;20468;-70
2021/06/02 15:32:26;;;;;;;4.87;4.77;;;24.50;95.90;;;;;;4937584;29;20485;-70
2021/06/02 15:34:55;;;;;;;4.73;4.53;;;24.70;96.10;;;;;;4937434;29;20462;-70
2021/06/02 15:37:27;;;;;;;4.37;4.17;;;24.60;95.90;;;;;;4937440;29;20512;-72
2021/06/02 15:39:53;;;;;;;6.07;5.60;;;24.50;95.90;;;;;;4938158;29;20470;-69
2021/06/02 15:42:21;;;;;;;3.90;3.60;;;24.50;96.50;;;;;;4937673;29;20555;-71
2021/06/02 15:44:49;;;;;;;5.13;4.80;;;24.70;96.30;;;;;;4937916;29;20469;-69
2021/06/02 15:47:15;;;;;;;4.90;4.70;;;24.80;96.10;;;;;;4937462;29;20540;-69
2021/06/02 15:49:47;;;;;;;4.17;4.07;;;25.00;95.90;;;;;;4937050;29;20469;-68
2021/06/02 15:52:14;;;;;;;4.93;4.63;;;25.00;96.10;;;;;;4936410;29;20512;-69
2021/06/02 15:54:51;;;;;;;4.90;4.67;;;25.20;96.10;;;;;;4937041;29;20461;-69
2021/06/02 15:57:20;;;;;;;5.80;5.40;;;25.20;96.20;;;;;;4937248;29;20479;-69
2021/06/02 15:59:47;;;;;;;5.27;5.00;;;25.40;95.40;;;;;;4937362;29;20473;-69
2021/06/02 16:02:15;;;;;;;5.30;5.00;;;25.50;95.50;;;;;;4936754;29;20493;-69
2021/06/02 16:04:41;;;;;;;4.70;4.60;;;25.60;94.90;;;;;;4936649;29;20821;-69
2021/06/02 16:07:09;;;;;;;4.73;4.47;;;25.60;95.40;;;;;;4936506;28;20489;-69
2021/06/02 16:09:36;;;;;;;5.53;5.23;;;25.60;95.20;;;;;;4937182;29;20773;-68
2021/06/02 16:12:03;;;;;;;5.20;5.00;;;25.60;95.50;;;;;;4937135;29;20536;-69
2021/06/02 16:14:29;;;;;;;4.83;4.57;;;25.60;95.40;;;;;;4937019;29;20472;-69
2021/06/02 16:16:57;;;;;;;5.90;5.60;;;25.60;95.50;;;;;;4937315;29;20462;-69
2021/06/02 16:19:23;;;;;;;5.40;5.07;;;25.70;95.40;;;;;;4936796;29;20480;-68
2021/06/02 16:21:49;;;;;;;5.00;4.80;;;25.60;94.90;;;;;;4936453;29;20492;-68
2021/06/02 16:24:17;;;;;;;5.03;4.70;;;25.50;95.30;;;;;;4936458;29;20468;-69
2021/06/02 16:26:45;;;;;;;4.40;4.30;;;25.50;95.40;;;;;;4936551;29;20461;-69
2021/06/02 16:29:12;;;;;;;5.83;5.53;;;25.50;95.40;;;;;;4937137;29;20493;-69
2021/06/02 16:31:39;;;;;;;5.53;5.13;;;25.50;95.20;;;;;;4937052;29;20496;-69
2021/06/02 16:34:06;;;;;;;5.43;5.13;;;25.50;95.10;;;;;;4936678;29;20668;-69
2021/06/02 16:36:33;;;;;;;5.47;5.17;;;25.30;95.20;;;;;;4936720;29;20470;-69
2021/06/02 16:39:01;;;;;;;5.40;5.20;;;25.30;95.40;;;;;;4937070;29;20472;-69
2021/06/02 16:41:28;;;;;;;5.50;5.10;;;25.40;95.90;;;;;;4937273;29;20863;-69
2021/06/02 16:43:56;;;;;;;5.20;4.83;;;25.40;96.00;;;;;;4937098;29;20465;-69
2021/06/02 16:46:23;;;;;;;5.37;5.00;;;25.50;95.80;;;;;;4937063;29;20469;-69
2021/06/02 16:48:49;;;;;;;5.57;5.33;;;25.50;95.60;;;;;;4937005;29;20552;-69
2021/06/02 16:51:20;;;;;;;6.13;5.67;;;25.50;95.80;;;;;;4936510;29;20497;-69
2021/06/02 16:53:47;;;;;;;5.30;5.10;;;25.40;96.00;;;;;;4937526;29;20461;-69
2021/06/02 16:56:16;;;;;;;6.20;5.80;;;25.30;96.00;;;;;;4937125;29;20476;-69
2021/06/02 16:58:44;;;;;;;6.43;6.07;;;25.30;96.40;;;;;;4936723;29;20939;-69
2021/06/02 17:01:11;;;;;;;5.93;5.63;;;25.30;96.30;;;;;;4936631;29;20504;-70
2021/06/02 17:03:37;;;;;;;5.90;5.60;;;25.30;96.30;;;;;;4936110;29;20474;-70
2021/06/02 17:06:04;;;;;;;5.60;5.30;;;25.30;96.30;;;;;;4935512;29;20996;-69
2021/06/02 17:08:32;;;;;;;6.77;6.47;;;25.30;96.30;;;;;;4936508;29;20584;-70
2021/06/02 17:10:59;;;;;;;5.20;5.00;;;25.30;96.20;;;;;;4936341;29;20485;-70
2021/06/02 17:13:26;;;;;;;6.60;6.10;;;25.20;96.80;;;;;;4936668;29;20465;-70
2021/06/02 17:15:53;;;;;;;5.63;5.40;;;25.30;96.50;;;;;;4936174;29;20480;-71